createdAt,value
2023-02-14T00:01:12.256Z,103279.00
2023-02-14T00:03:39.809Z,103281.00
2023-02-14T00:06:09.719Z,103285.00
2023-02-14T00:08:37.351Z,103283.00
2023-02-14T00:11:05.359Z,103280.00
2023-02-14T00:13:32.271Z,103282.00
2023-02-14T00:15:59.023Z,103269.00
2023-02-14T00:18:48.383Z,103274.00
2023-02-14T00:21:15.407Z,103267.00
2023-02-14T00:23:42.289Z,103283.00
2023-02-14T00:26:14.973Z,103274.00
2023-02-14T00:28:42.014Z,103278.00
2023-02-14T00:31:09.132Z,103277.00
2023-02-14T00:33:36.522Z,103271.00
2023-02-14T00:36:07.598Z,103269.00
2023-02-14T00:38:34.841Z,103277.00
2023-02-14T00:41:02.132Z,103269.00
2023-02-14T00:43:28.956Z,103265.00
2023-02-14T00:45:55.688Z,103273.00
2023-02-14T00:48:22.524Z,103275.00
2023-02-14T00:50:49.246Z,103272.00
2023-02-14T00:53:15.970Z,103272.00
2023-02-14T00:55:46.340Z,103266.00
2023-02-14T00:58:13.143Z,103272.00
2023-02-14T01:00:39.952Z,103272.00
2023-02-14T01:03:06.721Z,103260.00
2023-02-14T01:05:33.489Z,103254.00
2023-02-14T01:08:00.191Z,103273.00
2023-02-14T01:10:26.906Z,103259.00
2023-02-14T01:12:53.712Z,103260.00
2023-02-14T01:15:20.458Z,103260.00
2023-02-14T01:17:47.180Z,103257.00
2023-02-14T01:20:14.741Z,103252.00
2023-02-14T01:22:41.727Z,103253.00
2023-02-14T01:25:08.577Z,103252.00
2023-02-14T01:27:35.971Z,103252.00
2023-02-14T01:30:02.808Z,103246.00
2023-02-14T01:32:33.284Z,103261.00
2023-02-14T01:35:00.644Z,103246.00
2023-02-14T01:37:27.761Z,103252.00
2023-02-14T01:39:54.511Z,103235.00
2023-02-14T01:42:21.291Z,103238.00
2023-02-14T01:44:47.890Z,103235.00
2023-02-14T01:47:15.983Z,103235.00
2023-02-14T01:49:51.347Z,103230.00
2023-02-14T01:52:23.728Z,103238.00
2023-02-14T01:55:00.783Z,103223.00
2023-02-14T01:57:37.079Z,103234.00
2023-02-14T02:00:24.948Z,103228.00
2023-02-14T02:02:52.363Z,103235.00
2023-02-14T02:05:23.747Z,103227.00
2023-02-14T02:07:58.848Z,103228.00
2023-02-14T02:10:26.248Z,103231.00
2023-02-14T02:12:53.956Z,103235.00
2023-02-14T02:15:26.376Z,103233.00
2023-02-14T02:18:17.002Z,103235.00
2023-02-14T02:21:36.587Z,103236.00
2023-02-14T02:24:24.402Z,103235.00
2023-02-14T02:27:21.307Z,103246.00
2023-02-14T02:30:18.654Z,103235.00
2023-02-14T02:33:02.783Z,103226.00
2023-02-14T02:36:12.521Z,103224.00
2023-02-14T02:39:00.112Z,103234.00
2023-02-14T02:41:46.434Z,103234.00
2023-02-14T02:44:34.657Z,103234.00
2023-02-14T02:47:11.646Z,103235.00
2023-02-14T02:50:19.777Z,103233.00
2023-02-14T02:53:14.455Z,103232.00
2023-02-14T02:56:22.390Z,103242.00
2023-02-14T02:59:00.912Z,103230.00
2023-02-14T03:01:33.737Z,103227.00
2023-02-14T03:04:26.286Z,103232.00
2023-02-14T03:06:55.392Z,103234.00
2023-02-14T03:09:28.171Z,103221.00
2023-02-14T03:12:33.669Z,103236.00
2023-02-14T03:15:28.460Z,103234.00
2023-02-14T03:18:48.011Z,103244.00
2023-02-14T03:21:55.168Z,103243.00
2023-02-14T03:24:49.259Z,103233.00
2023-02-14T03:28:14.728Z,103227.00
2023-02-14T03:31:06.421Z,103233.00
2023-02-14T03:33:57.097Z,103221.00
2023-02-14T03:36:35.544Z,103221.00
2023-02-14T03:39:11.566Z,103219.00
2023-02-14T03:41:49.003Z,103228.00
2023-02-14T03:44:22.520Z,103224.00
2023-02-14T03:46:56.336Z,103223.00
2023-02-14T03:49:30.296Z,103228.00
2023-02-14T03:52:01.855Z,103228.00
2023-02-14T03:54:32.491Z,103227.00
2023-02-14T03:57:21.812Z,103222.00
2023-02-14T03:59:49.236Z,103235.00
2023-02-14T04:02:33.459Z,103232.00
2023-02-14T04:05:03.051Z,103215.00
2023-02-14T04:07:29.874Z,103221.00
2023-02-14T04:09:56.860Z,103224.00
2023-02-14T04:12:36.892Z,103218.00
2023-02-14T04:15:06.443Z,103218.00
2023-02-14T04:17:51.781Z,103222.00
2023-02-14T04:20:18.814Z,103218.00
2023-02-14T04:22:46.424Z,103220.00
2023-02-14T04:25:13.749Z,103225.00
2023-02-14T04:27:40.650Z,103221.00
2023-02-14T04:30:08.297Z,103213.00
2023-02-14T04:32:36.044Z,103212.00
2023-02-14T04:35:02.846Z,103224.00
2023-02-14T04:37:29.899Z,103216.00
2023-02-14T04:39:56.633Z,103214.00
2023-02-14T04:42:24.058Z,103216.00
2023-02-14T04:44:50.851Z,103206.00
2023-02-14T04:47:17.648Z,103209.00
2023-02-14T04:49:44.433Z,103207.00
2023-02-14T04:52:13.071Z,103210.00
2023-02-14T04:54:39.838Z,103203.00
2023-02-14T04:57:06.589Z,103202.00
2023-02-14T04:59:33.751Z,103196.00
2023-02-14T05:02:00.602Z,103211.00
2023-02-14T05:04:27.455Z,103198.00
2023-02-14T05:06:54.168Z,103195.00
2023-02-14T05:09:20.968Z,103203.00
2023-02-14T05:11:47.961Z,103194.00
2023-02-14T05:14:14.807Z,103200.00
2023-02-14T05:16:41.545Z,103196.00
2023-02-14T05:19:08.957Z,103204.00
2023-02-14T05:21:35.804Z,103195.00
2023-02-14T05:24:02.736Z,103194.00
2023-02-14T05:26:30.106Z,103193.00
2023-02-14T05:28:57.101Z,103183.00
2023-02-14T05:31:24.953Z,103182.00
2023-02-14T05:33:51.832Z,103192.00
2023-02-14T05:36:18.581Z,103197.00
2023-02-14T05:38:45.363Z,103194.00
2023-02-14T05:41:12.108Z,103183.00
2023-02-14T05:43:39.085Z,103183.00
2023-02-14T05:46:06.137Z,103194.00
2023-02-14T05:48:34.162Z,103190.00
2023-02-14T05:51:10.628Z,103182.00
2023-02-14T05:53:38.145Z,103184.00
2023-02-14T05:56:06.085Z,103185.00
2023-02-14T05:58:32.838Z,103182.00
2023-02-14T06:01:00.692Z,103182.00
2023-02-14T06:03:28.072Z,103170.00
2023-02-14T06:05:54.846Z,103174.00
2023-02-14T06:08:21.675Z,103179.00
2023-02-14T06:10:48.401Z,103186.00
2023-02-14T06:13:15.527Z,103186.00
2023-02-14T06:15:42.295Z,103186.00
2023-02-14T06:18:09.844Z,103192.00
2023-02-14T06:20:37.014Z,103191.00
2023-02-14T06:23:04.237Z,103196.00
2023-02-14T06:25:30.994Z,103192.00
2023-02-14T06:27:59.299Z,103191.00
2023-02-14T06:30:26.972Z,103191.00
2023-02-14T06:32:54.124Z,103192.00
2023-02-14T06:35:21.550Z,103198.00
2023-02-14T06:37:48.718Z,103199.00
2023-02-14T06:40:15.539Z,103197.00
2023-02-14T06:42:42.506Z,103207.00
2023-02-14T06:45:09.820Z,103193.00
2023-02-14T06:47:36.723Z,103193.00
2023-02-14T06:50:05.205Z,103188.00
2023-02-14T06:52:33.454Z,103192.00
2023-02-14T06:55:00.403Z,103191.00
2023-02-14T06:57:27.202Z,103188.00
2023-02-14T07:00:04.603Z,103194.00
2023-02-14T07:02:31.383Z,103193.00
2023-02-14T07:04:58.172Z,103192.00
2023-02-14T07:07:24.940Z,103196.00
2023-02-14T07:09:52.096Z,103197.00
2023-02-14T07:12:18.868Z,103184.00
2023-02-14T07:14:45.618Z,103191.00
2023-02-14T07:17:12.347Z,103192.00
2023-02-14T07:19:39.151Z,103198.00
2023-02-14T07:22:05.894Z,103185.00
2023-02-14T07:24:32.682Z,103189.00
2023-02-14T07:26:59.448Z,103194.00
2023-02-14T07:29:26.267Z,103194.00
2023-02-14T07:31:53.161Z,103196.00
2023-02-14T07:34:19.989Z,103193.00
2023-02-14T07:36:46.818Z,103202.00
2023-02-14T07:39:13.593Z,103199.00
2023-02-14T07:41:40.918Z,103195.00
2023-02-14T07:44:07.734Z,103196.00
2023-02-14T07:46:34.513Z,103190.00
2023-02-14T07:49:01.299Z,103192.00
2023-02-14T07:51:28.014Z,103188.00
2023-02-14T07:53:54.757Z,103187.00
2023-02-14T07:56:22.235Z,103175.00
2023-02-14T07:58:49.877Z,103187.00
2023-02-14T08:01:17.553Z,103179.00
2023-02-14T08:03:49.531Z,103190.00
2023-02-14T08:06:17.999Z,103188.00
2023-02-14T08:08:45.832Z,103192.00
2023-02-14T08:11:33.329Z,103190.00
2023-02-14T08:14:00.144Z,103191.00
2023-02-14T08:16:26.913Z,103196.00
2023-02-14T08:18:53.686Z,103202.00
2023-02-14T08:21:20.708Z,103201.00
2023-02-14T08:23:47.693Z,103210.00
2023-02-14T08:26:14.515Z,103205.00
2023-02-14T08:28:41.500Z,103212.00
2023-02-14T08:31:09.167Z,103218.00
2023-02-14T08:33:36.014Z,103218.00
2023-02-14T08:36:03.365Z,103216.00
2023-02-14T08:38:30.420Z,103213.00
2023-02-14T08:41:03.772Z,103224.00
2023-02-14T08:43:34.178Z,103219.00
2023-02-14T08:46:01.833Z,103225.00
2023-02-14T08:48:28.810Z,103224.00
2023-02-14T08:50:55.527Z,103220.00
2023-02-14T08:53:22.468Z,103230.00
2023-02-14T08:55:49.400Z,103220.00
2023-02-14T08:58:16.570Z,103218.00
2023-02-14T09:00:43.988Z,103220.00
2023-02-14T09:03:10.872Z,103223.00
2023-02-14T09:05:37.717Z,103223.00
2023-02-14T09:08:05.926Z,103213.00
2023-02-14T09:10:32.696Z,103215.00
2023-02-14T09:12:59.514Z,103220.00
2023-02-14T09:15:26.329Z,103224.00
2023-02-14T09:17:53.114Z,103232.00
2023-02-14T09:20:20.406Z,103229.00
2023-02-14T09:22:48.807Z,103236.00
2023-02-14T09:25:16.324Z,103224.00
2023-02-14T09:27:43.458Z,103225.00
2023-02-14T09:30:11.241Z,103223.00
2023-02-14T09:32:38.166Z,103226.00
2023-02-14T09:35:05.554Z,103226.00
2023-02-14T09:37:32.339Z,103231.00
2023-02-14T09:39:59.084Z,103233.00
2023-02-14T09:42:41.562Z,103225.00
2023-02-14T09:45:25.656Z,103235.00
2023-02-14T09:48:03.854Z,103231.00
2023-02-14T09:50:40.308Z,103227.00
2023-02-14T09:53:22.751Z,103235.00
2023-02-14T09:55:59.817Z,103236.00
2023-02-14T09:59:23.555Z,103234.00
2023-02-14T10:02:16.987Z,103223.00
2023-02-14T10:05:06.904Z,103234.00
2023-02-14T10:08:12.606Z,103235.00
2023-02-14T10:10:53.622Z,103230.00
2023-02-14T10:13:38.677Z,103227.00
2023-02-14T10:16:19.772Z,103233.00
2023-02-14T10:19:03.902Z,103222.00
2023-02-14T10:22:01.373Z,103225.00
2023-02-14T10:24:43.814Z,103224.00
2023-02-14T10:27:35.212Z,103228.00
2023-02-14T10:30:11.037Z,103226.00
2023-02-14T10:33:02.210Z,103218.00
2023-02-14T10:35:43.159Z,103228.00
2023-02-14T10:38:53.907Z,103226.00
2023-02-14T10:41:49.152Z,103211.00
2023-02-14T10:45:04.933Z,103199.00
2023-02-14T10:47:42.546Z,103212.00
2023-02-14T10:50:54.887Z,103217.00
2023-02-14T10:53:42.097Z,103213.00
2023-02-14T10:56:21.563Z,103217.00
2023-02-14T10:58:52.442Z,103207.00
2023-02-14T11:01:19.995Z,103208.00
2023-02-14T11:04:03.777Z,103206.00
2023-02-14T11:06:31.330Z,103203.00
2023-02-14T11:08:58.709Z,103198.00
2023-02-14T11:11:43.434Z,103203.00
2023-02-14T11:16:52.385Z,103198.00
2023-02-14T11:19:22.981Z,103198.00
2023-02-14T11:21:51.864Z,103198.00
2023-02-14T11:24:36.288Z,103199.00
2023-02-14T11:27:16.011Z,103195.00
2023-02-14T11:29:48.140Z,103192.00
2023-02-14T11:32:23.308Z,103194.00
2023-02-14T11:35:20.955Z,103198.00
2023-02-14T11:37:53.508Z,103192.00
2023-02-14T11:40:36.717Z,103195.00
2023-02-14T11:43:15.425Z,103191.00
2023-02-14T11:45:48.764Z,103185.00
2023-02-14T11:48:37.735Z,103191.00
2023-02-14T11:51:10.812Z,103183.00
2023-02-14T11:54:00.495Z,103189.00
2023-02-14T11:56:58.034Z,103184.00
2023-02-14T11:59:52.677Z,103176.00
2023-02-14T12:02:28.435Z,103178.00
2023-02-14T12:05:21.124Z,103174.00
2023-02-14T12:07:51.603Z,103162.00
2023-02-14T12:10:20.726Z,103168.00
2023-02-14T12:13:22.260Z,103163.00
2023-02-14T12:15:48.942Z,103160.00
2023-02-14T12:18:55.604Z,103157.00
2023-02-14T12:21:51.781Z,103161.00
2023-02-14T12:24:26.508Z,103151.00
2023-02-14T12:27:35.700Z,103139.00
2023-02-14T12:30:14.849Z,103132.00
2023-02-14T12:32:49.418Z,103134.00
2023-02-14T12:35:28.488Z,103128.00
2023-02-14T12:38:11.383Z,103119.00
2023-02-14T12:41:13.097Z,103112.00
2023-02-14T12:43:50.655Z,103111.00
2023-02-14T12:46:35.807Z,103105.00
2023-02-14T12:49:28.402Z,103099.00
2023-02-14T12:52:30.370Z,103100.00
2023-02-14T12:55:29.608Z,103110.00
2023-02-14T12:58:26.041Z,103098.00
2023-02-14T13:01:38.514Z,103092.00
2023-02-14T13:04:48.251Z,103084.00
2023-02-14T13:07:45.175Z,103083.00
2023-02-14T13:10:42.522Z,103087.00
2023-02-14T13:13:43.975Z,103085.00
2023-02-14T13:16:26.722Z,103080.00
2023-02-14T13:19:19.825Z,103077.00
2023-02-14T13:21:49.568Z,103078.00
2023-02-14T13:24:28.510Z,103076.00
2023-02-14T13:27:01.982Z,103082.00
2023-02-14T13:29:54.428Z,103083.00
2023-02-14T13:32:29.320Z,103082.00
2023-02-14T13:34:57.782Z,103075.00
2023-02-14T13:37:27.371Z,103063.00
2023-02-14T13:39:59.588Z,103060.00
2023-02-14T13:42:48.559Z,103065.00
2023-02-14T13:45:30.603Z,103067.00
2023-02-14T13:48:19.653Z,103069.00
2023-02-14T13:50:57.182Z,103071.00
2023-02-14T13:53:36.233Z,103072.00
2023-02-14T13:56:15.238Z,103061.00
2023-02-14T13:59:04.516Z,103066.00
2023-02-14T14:01:40.573Z,103063.00
2023-02-14T14:04:25.977Z,103063.00
2023-02-14T14:07:04.851Z,103058.00
2023-02-14T14:09:43.705Z,103064.00
2023-02-14T14:12:38.576Z,103057.00
2023-02-14T14:15:05.480Z,103063.00
2023-02-14T14:18:15.125Z,103054.00
2023-02-14T14:20:47.866Z,103053.00
2023-02-14T14:23:32.396Z,103053.00
2023-02-14T14:26:01.541Z,103053.00
2023-02-14T14:28:32.473Z,103047.00
2023-02-14T14:30:59.862Z,103045.00
2023-02-14T14:33:34.712Z,103040.00
2023-02-14T14:36:08.581Z,103053.00
2023-02-14T14:38:47.454Z,103048.00
2023-02-14T14:41:14.321Z,103047.00
2023-02-14T14:43:42.109Z,103050.00
2023-02-14T14:46:13.115Z,103043.00
2023-02-14T14:48:42.541Z,103043.00
2023-02-14T14:51:28.486Z,103039.00
2023-02-14T14:54:04.794Z,103050.00
2023-02-14T14:56:39.832Z,103044.00
2023-02-14T14:59:25.019Z,103045.00
2023-02-14T15:01:52.515Z,103043.00
2023-02-14T15:04:31.219Z,103038.00
2023-02-14T15:07:23.940Z,103043.00
2023-02-14T15:09:51.250Z,103030.00
2023-02-14T15:12:42.509Z,103028.00
2023-02-14T15:15:15.054Z,103027.00
2023-02-14T15:17:43.959Z,103019.00
2023-02-14T15:20:21.905Z,103023.00
2023-02-14T15:22:52.509Z,103020.00
2023-02-14T15:25:36.452Z,103015.00
2023-02-14T15:28:03.387Z,103017.00
2023-02-14T15:30:34.799Z,103012.00
2023-02-14T15:33:04.343Z,103016.00
2023-02-14T15:35:35.655Z,103013.00
2023-02-14T15:38:06.913Z,102997.00
2023-02-14T15:40:35.498Z,103007.00
2023-02-14T15:43:31.944Z,103001.00
2023-02-14T15:46:29.735Z,103000.00
2023-02-14T15:49:01.167Z,102998.00
2023-02-14T15:51:36.313Z,102990.00
2023-02-14T15:54:20.912Z,102986.00
2023-02-14T15:56:52.742Z,102985.00
2023-02-14T15:59:24.024Z,102980.00
2023-02-14T16:01:59.597Z,102975.00
2023-02-14T16:04:31.535Z,102975.00
2023-02-14T16:07:24.819Z,102973.00
2023-02-14T16:10:25.036Z,102971.00
2023-02-14T16:13:00.588Z,102975.00
2023-02-14T16:15:37.227Z,102976.00
2023-02-14T16:18:17.961Z,102975.00
2023-02-14T16:20:48.715Z,102971.00
2023-02-14T16:23:26.359Z,102972.00
2023-02-14T16:25:58.837Z,102968.00
2023-02-14T16:28:30.415Z,102969.00
2023-02-14T16:31:00.331Z,102979.00
2023-02-14T16:33:37.372Z,102969.00
2023-02-14T16:36:31.205Z,102976.00
2023-02-14T16:39:01.819Z,102975.00
2023-02-14T16:41:30.621Z,102963.00
2023-02-14T16:43:57.377Z,102965.00
2023-02-14T16:46:30.275Z,102974.00
2023-02-14T16:48:58.748Z,102974.00
2023-02-14T16:51:29.677Z,102978.00
2023-02-14T16:54:02.654Z,102987.00
2023-02-14T16:56:46.516Z,102962.00
2023-02-14T16:59:13.242Z,102974.00
2023-02-14T17:01:41.061Z,102975.00
2023-02-14T17:04:07.879Z,102983.00
2023-02-14T17:06:39.212Z,102973.00
2023-02-14T17:09:11.246Z,102973.00
2023-02-14T17:11:45.566Z,102979.00
2023-02-14T17:14:18.964Z,102979.00
2023-02-14T17:16:45.921Z,102975.00
2023-02-14T17:19:13.568Z,102981.00
2023-02-14T17:21:41.230Z,102982.00
2023-02-14T17:24:08.058Z,102977.00
2023-02-14T17:26:35.072Z,102971.00
2023-02-14T17:29:01.800Z,102976.00
2023-02-14T17:31:29.151Z,102970.00
2023-02-14T17:33:56.271Z,102971.00
2023-02-14T17:36:24.097Z,102965.00
2023-02-14T17:38:54.080Z,102967.00
2023-02-14T17:41:25.078Z,102968.00
2023-02-14T17:43:54.828Z,102962.00
2023-02-14T17:46:22.094Z,102974.00
2023-02-14T17:48:49.158Z,102963.00
2023-02-14T17:51:20.316Z,102967.00
2023-02-14T17:53:48.207Z,102961.00
2023-02-14T17:56:20.056Z,102951.00
2023-02-14T17:58:49.076Z,102949.00
2023-02-14T18:01:20.295Z,102964.00
2023-02-14T18:03:47.549Z,102954.00
2023-02-14T18:06:15.147Z,102953.00
2023-02-14T18:08:51.738Z,102939.00
2023-02-14T18:11:21.252Z,102955.00
2023-02-14T18:13:48.125Z,102939.00
2023-02-14T18:16:18.018Z,102937.00
2023-02-14T18:18:45.657Z,102936.00
2023-02-14T18:21:16.265Z,102941.00
2023-02-14T18:23:43.420Z,102942.00
2023-02-14T18:26:18.022Z,102936.00
2023-02-14T18:28:45.458Z,102926.00
2023-02-14T18:31:17.986Z,102931.00
2023-02-14T18:33:47.327Z,102935.00
2023-02-14T18:36:19.147Z,102915.00
2023-02-14T18:38:48.613Z,102913.00
2023-02-14T18:41:18.060Z,102905.00
2023-02-14T18:43:45.091Z,102918.00
2023-02-14T18:46:24.887Z,102921.00
2023-02-14T18:48:52.479Z,102910.00
2023-02-14T18:51:27.875Z,102901.00
2023-02-14T18:53:57.528Z,102909.00
2023-02-14T18:56:28.893Z,102908.00
2023-02-14T18:59:02.450Z,102908.00
2023-02-14T19:01:39.631Z,102897.00
2023-02-14T19:04:08.906Z,102901.00
2023-02-14T19:06:36.427Z,102904.00
2023-02-14T19:09:08.269Z,102898.00
2023-02-14T19:11:35.008Z,102904.00
2023-02-14T19:14:09.344Z,102886.00
2023-02-14T19:16:43.836Z,102885.00
2023-02-14T19:19:10.833Z,102885.00
2023-02-14T19:21:37.833Z,102880.00
2023-02-14T19:24:07.118Z,102881.00
2023-02-14T19:26:39.950Z,102885.00
2023-02-14T19:29:13.657Z,102875.00
2023-02-14T19:31:45.138Z,102869.00
2023-02-14T19:34:29.591Z,102879.00
2023-02-14T19:37:00.626Z,102879.00
2023-02-14T19:39:29.734Z,102882.00
2023-02-14T19:41:57.112Z,102882.00
2023-02-14T19:44:25.791Z,102877.00
2023-02-14T19:46:54.393Z,102880.00
2023-02-14T19:49:21.995Z,102883.00
2023-02-14T19:51:51.161Z,102874.00
2023-02-14T19:54:18.746Z,102879.00
2023-02-14T19:56:48.169Z,102870.00
2023-02-14T19:59:20.124Z,102865.00
2023-02-14T20:01:51.710Z,102869.00
2023-02-14T20:04:25.828Z,102875.00
2023-02-14T20:06:53.673Z,102871.00
2023-02-14T20:09:21.944Z,102871.00
2023-02-14T20:11:55.149Z,102878.00
2023-02-14T20:14:40.810Z,102864.00
2023-02-14T20:17:14.969Z,102865.00
2023-02-14T20:19:41.673Z,102866.00
2023-02-14T20:22:08.470Z,102854.00
2023-02-14T20:24:35.501Z,102859.00
2023-02-14T20:27:02.866Z,102851.00
2023-02-14T20:29:29.939Z,102850.00
2023-02-14T20:32:00.097Z,102849.00
2023-02-14T20:34:27.346Z,102856.00
2023-02-14T20:36:55.671Z,102850.00
2023-02-14T20:39:28.338Z,102840.00
2023-02-14T20:41:55.354Z,102841.00
2023-02-14T20:44:22.811Z,102837.00
2023-02-14T20:46:52.751Z,102838.00
2023-02-14T20:49:21.992Z,102822.00
2023-02-14T20:51:50.966Z,102828.00
2023-02-14T20:54:23.704Z,102840.00
2023-02-14T20:56:51.191Z,102830.00
2023-02-14T20:59:19.394Z,102826.00
2023-02-14T21:01:46.376Z,102838.00
2023-02-14T21:04:14.085Z,102831.00
2023-02-14T21:06:41.009Z,102829.00
2023-02-14T21:09:08.620Z,102832.00
2023-02-14T21:11:35.678Z,102835.00
2023-02-14T21:14:02.947Z,102823.00
2023-02-14T21:16:30.570Z,102813.00
2023-02-14T21:19:00.199Z,102818.00
2023-02-14T21:21:36.921Z,102804.00
2023-02-14T21:24:08.629Z,102811.00
2023-02-14T21:26:36.083Z,102814.00
2023-02-14T21:29:03.719Z,102817.00
2023-02-14T21:31:31.569Z,102809.00
2023-02-14T21:34:01.724Z,102817.00
2023-02-14T21:36:31.849Z,102818.00
2023-02-14T21:39:00.234Z,102812.00
2023-02-14T21:41:30.264Z,102800.00
2023-02-14T21:43:59.097Z,102805.00
2023-02-14T21:46:30.965Z,102792.00
2023-02-14T21:49:19.504Z,102797.00
2023-02-14T21:51:47.521Z,102796.00
2023-02-14T21:54:15.249Z,102792.00
2023-02-14T21:56:42.869Z,102792.00
2023-02-14T21:59:10.483Z,102786.00
2023-02-14T22:01:41.613Z,102785.00
2023-02-14T22:04:12.216Z,102787.00
2023-02-14T22:06:42.150Z,102792.00
2023-02-14T22:09:11.000Z,102796.00
2023-02-14T22:11:38.059Z,102787.00
2023-02-14T22:14:04.915Z,102787.00
2023-02-14T22:16:31.718Z,102787.00
2023-02-14T22:18:58.540Z,102789.00
2023-02-14T22:21:27.189Z,102782.00
2023-02-14T22:23:57.450Z,102779.00
2023-02-14T22:26:27.892Z,102783.00
2023-02-14T22:28:59.112Z,102768.00
2023-02-14T22:31:28.836Z,102771.00
2023-02-14T22:33:55.890Z,102766.00
2023-02-14T22:36:22.766Z,102772.00
2023-02-14T22:38:49.777Z,102762.00
2023-02-14T22:41:20.838Z,102753.00
2023-02-14T22:43:48.543Z,102757.00
2023-02-14T22:46:23.131Z,102761.00
2023-02-14T22:48:51.797Z,102749.00
2023-02-14T22:51:45.739Z,102756.00
2023-02-14T22:54:15.397Z,102750.00
2023-02-14T22:56:46.305Z,102754.00
2023-02-14T22:59:22.632Z,102756.00
2023-02-14T23:01:52.006Z,102754.00
2023-02-14T23:04:21.871Z,102754.00
2023-02-14T23:06:49.063Z,102748.00
2023-02-14T23:09:15.969Z,102748.00
2023-02-14T23:11:45.757Z,102749.00
2023-02-14T23:14:33.767Z,102748.00
2023-02-14T23:17:19.885Z,102742.00
2023-02-14T23:20:05.872Z,102742.00
2023-02-14T23:22:39.486Z,102739.00
2023-02-14T23:25:10.288Z,102745.00
2023-02-14T23:27:47.347Z,102738.00
2023-02-14T23:30:18.587Z,102736.00
2023-02-14T23:32:45.943Z,102739.00
2023-02-14T23:35:12.774Z,102740.00
2023-02-14T23:37:40.193Z,102733.00
2023-02-14T23:40:08.016Z,102734.00
2023-02-14T23:42:34.774Z,102729.00
2023-02-14T23:45:21.541Z,102732.00
2023-02-14T23:47:48.455Z,102727.00
2023-02-14T23:50:15.608Z,102723.00
2023-02-14T23:52:44.917Z,102725.00
2023-02-14T23:55:12.448Z,102730.00
2023-02-14T23:57:39.527Z,102726.00
